CGMPW CYYJ-KNUW
Flight info
| Callsign | CGMPW |
|---|---|
| Flight time | N/A |
| Altitude | 1200 |
| Route | DCT |
| Aircraft | AS50/L-VGD/A |
Departure
| Time | 2026-05-07 01:49 |
|---|---|
| Airport | Victoria International Airport (CYYJ) |
Arrival
| Time | N/A |
|---|---|
| Airport | Whidbey Island Naval Air Station (Ault Field) (KNUW) |
| Time | Latitude | Longitude | Altitude | Speed | Heading |
|---|---|---|---|---|---|
| 2026-05-07 01:46 | 48.64879 | -123.43514 | 49 ft | 0 kts | 140° |
| 2026-05-07 01:48 | 48.64871 | -123.43499 | 247 ft | 16 kts | 113° |
| 2026-05-07 01:48 | 48.64671 | -123.42937 | 424 ft | 89 kts | 114° |
| 2026-05-07 01:48 | 48.64565 | -123.41836 | 385 ft | 117 kts | 90° |
| 2026-05-07 01:49 | 48.64444 | -123.40519 | 360 ft | 124 kts | 97° |
| 2026-05-07 01:49 | 48.64481 | -123.39372 | 718 ft | 107 kts | 77° |
| 2026-05-07 01:49 | 48.64820 | -123.38463 | 1035 ft | 122 kts | 59° |
| 2026-05-07 01:49 | 48.65006 | -123.37034 | 592 ft | 146 kts | 102° |
| 2026-05-07 01:50 | 48.64395 | -123.35902 | 444 ft | 139 kts | 149° |
| 2026-05-07 01:50 | 48.63571 | -123.35226 | 259 ft | 131 kts | 150° |
| 2026-05-07 01:50 | 48.62796 | -123.34583 | 250 ft | 123 kts | 147° |
| 2026-05-07 01:50 | 48.62069 | -123.33908 | 277 ft | 124 kts | 142° |
| 2026-05-07 01:51 | 48.61391 | -123.33120 | 255 ft | 128 kts | 142° |
| 2026-05-07 01:51 | 48.60719 | -123.32406 | 349 ft | 122 kts | 149° |
| 2026-05-07 01:51 | 48.59947 | -123.31858 | 427 ft | 118 kts | 148° |
| 2026-05-07 01:51 | 48.59214 | -123.31258 | 441 ft | 124 kts | 151° |
| 2026-05-07 01:52 | 48.58408 | -123.30608 | 226 ft | 138 kts | 151° |
| 2026-05-07 01:52 | 48.57551 | -123.29969 | 138 ft | 138 kts | 152° |
| 2026-05-07 01:52 | 48.56793 | -123.29196 | 154 ft | 130 kts | 141° |
| 2026-05-07 01:52 | 48.56168 | -123.28342 | 375 ft | 112 kts | 130° |
| 2026-05-07 01:53 | 48.55663 | -123.27389 | 385 ft | 115 kts | 109° |
| 2026-05-07 01:53 | 48.55525 | -123.26199 | 445 ft | 116 kts | 96° |
| 2026-05-07 01:53 | 48.55403 | -123.24933 | 340 ft | 127 kts | 98° |
| 2026-05-07 01:53 | 48.55380 | -123.23584 | 544 ft | 131 kts | 94° |
| 2026-05-07 01:54 | 48.55323 | -123.22153 | 555 ft | 142 kts | 93° |
| 2026-05-07 01:54 | 48.55332 | -123.20611 | 176 ft | 153 kts | 90° |
| 2026-05-07 01:54 | 48.55290 | -123.19015 | 114 ft | 150 kts | 100° |
| 2026-05-07 01:54 | 48.55089 | -123.17545 | 211 ft | 143 kts | 104° |
| 2026-05-07 01:55 | 48.54917 | -123.16053 | 376 ft | 137 kts | 97° |
| 2026-05-07 01:55 | 48.54725 | -123.14674 | 815 ft | 129 kts | 111° |
| 2026-05-07 01:55 | 48.54516 | -123.13332 | 880 ft | 131 kts | 107° |
| 2026-05-07 01:55 | 48.54301 | -123.12015 | 817 ft | 125 kts | 110° |
| 2026-05-07 01:56 | 48.54081 | -123.10712 | 644 ft | 133 kts | 112° |
| 2026-05-07 01:56 | 48.53815 | -123.09401 | 612 ft | 131 kts | 112° |
| 2026-05-07 01:56 | 48.53523 | -123.08011 | 634 ft | 138 kts | 112° |
| 2026-05-07 01:56 | 48.53274 | -123.06623 | 672 ft | 133 kts | 108° |
| 2026-05-07 01:57 | 48.53045 | -123.05269 | 375 ft | 137 kts | 114° |
| 2026-05-07 01:57 | 48.52708 | -123.04002 | 402 ft | 129 kts | 116° |
| 2026-05-07 01:57 | 48.52377 | -123.02692 | 374 ft | 136 kts | 117° |
| 2026-05-07 01:57 | 48.51856 | -123.01523 | 439 ft | 118 kts | 133° |
| 2026-05-07 01:58 | 48.51519 | -123.00865 | 576 ft | 121 kts | 128° |
| 2026-05-07 01:58 | 48.50862 | -122.99458 | 575 ft | 126 kts | 132° |
| 2026-05-07 01:58 | 48.50403 | -122.98367 | 549 ft | 140 kts | 117° |
| 2026-05-07 01:58 | 48.49892 | -122.97163 | 491 ft | 122 kts | 141° |
| 2026-05-07 01:59 | 48.49488 | -122.96617 | 451 ft | 114 kts | 145° |
| 2026-05-07 01:59 | 48.48914 | -122.95851 | 337 ft | 110 kts | 149° |
| 2026-05-07 01:59 | 48.48317 | -122.95215 | 245 ft | 107 kts | 153° |
| 2026-05-07 01:59 | 48.47640 | -122.94775 | 164 ft | 104 kts | 172° |
| 2026-05-07 02:00 | 48.46977 | -122.94620 | 248 ft | 100 kts | 160° |
| 2026-05-07 02:00 | 48.46386 | -122.93914 | 324 ft | 116 kts | 140° |
| 2026-05-07 02:00 | 48.45796 | -122.93032 | 457 ft | 118 kts | 137° |
| 2026-05-07 02:00 | 48.45194 | -122.92100 | 380 ft | 132 kts | 141° |
| 2026-05-07 02:01 | 48.44496 | -122.91220 | 384 ft | 133 kts | 146° |
| 2026-05-07 02:01 | 48.43764 | -122.90444 | 381 ft | 133 kts | 150° |
| 2026-05-07 02:01 | 48.43051 | -122.89609 | 460 ft | 126 kts | 144° |
| 2026-05-07 02:01 | 48.42376 | -122.88746 | 446 ft | 123 kts | 140° |
| 2026-05-07 02:02 | 48.41806 | -122.88096 | 344 ft | 105 kts | 140° |
| 2026-05-07 02:02 | 48.41332 | -122.87089 | 367 ft | 136 kts | 130° |
| 2026-05-07 02:02 | 48.40735 | -122.85934 | 332 ft | 142 kts | 133° |
| 2026-05-07 02:02 | 48.40189 | -122.84675 | 355 ft | 144 kts | 126° |
| 2026-05-07 02:03 | 48.39618 | -122.83419 | 398 ft | 144 kts | 124° |